Detroit, Michigan
Traffic Map
Current Weather Conditions
Detroit, Michigan
Broken Clouds
Broken Clouds
59°
Feels Like: 59°
Wind Chill: 59° Ceiling: 26000
Heat Index: 59° Visibility: 15mi
Dew Point: 57° Wind: 6mph
Humidity: 94% Direction: 230° (SW)
Pressure: 29.95in Gusts: 0mph
Raw Report DataCYQG 300700Z 23005KT 15SM FEW110 BKN260 15/14 A2995 RMK AC2CI5 SLP142
Traffic Incident Summary
Active as of:
Severity:
Category:
InformationThere was an issue retrieving the traffic information for this location. Please try a different location or try again shortly.
Advertisements
Track Severe Weather on mobile